createdAt,value
2023-11-08T00:01:32.814Z,87.04
2023-11-08T00:04:02.971Z,86.52
2023-11-08T00:06:35.416Z,85.98
2023-11-08T00:09:07.182Z,86.31
2023-11-08T00:11:37.051Z,85.87
2023-11-08T00:14:07.936Z,85.95
2023-11-08T00:16:39.043Z,85.81
2023-11-08T00:19:12.178Z,85.82
2023-11-08T00:21:42.511Z,85.53
2023-11-08T00:24:12.298Z,85.45
2023-11-08T00:26:42.755Z,84.89
2023-11-08T00:29:13.746Z,84.65
2023-11-08T00:31:44.636Z,84.91
2023-11-08T00:34:17.774Z,84.65
2023-11-08T00:36:48.429Z,84.59
2023-11-08T00:39:20.426Z,84.82
2023-11-08T00:41:51.640Z,85.42
2023-11-08T00:44:23.416Z,85.24
2023-11-08T00:46:56.117Z,85.14
2023-11-08T00:49:26.139Z,85.32
2023-11-08T00:52:02.275Z,85.66
2023-11-08T00:54:35.883Z,85.97
2023-11-08T00:57:06.280Z,85.84
2023-11-08T00:59:36.865Z,85.44
2023-11-08T01:02:09.870Z,85.80
2023-11-08T01:04:39.920Z,85.70
2023-11-08T01:07:10.028Z,85.55
2023-11-08T01:09:40.719Z,85.30
2023-11-08T01:12:10.805Z,85.58
2023-11-08T01:14:40.703Z,85.60
2023-11-08T01:17:12.258Z,85.50
2023-11-08T01:19:42.119Z,85.06
2023-11-08T01:22:13.745Z,85.39
2023-11-08T01:24:43.738Z,85.39
2023-11-08T01:27:13.488Z,85.43
2023-11-08T01:29:43.733Z,85.08
2023-11-08T01:32:13.436Z,84.36
2023-11-08T01:34:43.322Z,84.02
2023-11-08T01:37:13.070Z,83.86
2023-11-08T01:39:43.219Z,83.91
2023-11-08T01:42:13.083Z,84.09
2023-11-08T01:44:43.106Z,83.84
2023-11-08T01:47:16.844Z,83.34
2023-11-08T01:49:47.349Z,83.83
2023-11-08T01:52:17.341Z,83.64
2023-11-08T01:54:51.122Z,83.95
2023-11-08T01:57:22.912Z,84.04
2023-11-08T01:59:53.875Z,83.79
2023-11-08T02:02:24.174Z,83.46
2023-11-08T02:04:57.295Z,83.41
2023-11-08T02:07:27.194Z,83.00
2023-11-08T02:09:57.160Z,82.49
2023-11-08T02:12:27.142Z,82.03
2023-11-08T02:15:13.580Z,81.68
2023-11-08T02:17:48.445Z,80.29
2023-11-08T02:20:19.851Z,79.74
2023-11-08T02:22:49.992Z,79.13
2023-11-08T02:25:20.321Z,79.28
2023-11-08T02:27:50.596Z,79.56
2023-11-08T02:30:20.954Z,80.46
2023-11-08T02:32:51.531Z,80.60
2023-11-08T02:35:22.513Z,81.03
2023-11-08T02:37:52.421Z,81.46
2023-11-08T02:40:22.218Z,81.71
2023-11-08T02:42:54.841Z,81.17
2023-11-08T02:45:24.734Z,81.15
2023-11-08T02:47:54.916Z,81.83
2023-11-08T02:50:25.828Z,81.89
2023-11-08T02:53:22.837Z,81.68
2023-11-08T02:55:52.761Z,81.35
2023-11-08T02:58:22.479Z,80.90
2023-11-08T03:00:56.674Z,80.27
2023-11-08T03:03:27.188Z,81.18
2023-11-08T03:05:57.232Z,81.17
2023-11-08T03:08:27.153Z,81.14
2023-11-08T03:10:57.031Z,81.61
2023-11-08T03:13:28.065Z,81.79
2023-11-08T03:15:59.170Z,81.79
2023-11-08T03:18:29.153Z,81.47
2023-11-08T03:20:58.996Z,81.76
2023-11-08T03:23:33.127Z,81.52
2023-11-08T03:26:03.153Z,81.76
2023-11-08T03:28:33.163Z,81.81
2023-11-08T03:31:03.336Z,81.46
2023-11-08T03:33:33.619Z,81.71
2023-11-08T03:36:05.580Z,82.08
2023-11-08T03:38:35.898Z,81.85
2023-11-08T03:41:06.089Z,82.08
2023-11-08T03:43:36.151Z,82.35
2023-11-08T03:46:06.295Z,81.73
2023-11-08T03:48:36.843Z,81.36
2023-11-08T03:51:07.030Z,81.67
2023-11-08T03:53:37.456Z,81.48
2023-11-08T03:56:07.654Z,80.98
2023-11-08T03:58:40.803Z,81.56
2023-11-08T04:01:11.336Z,81.25
2023-11-08T04:03:41.621Z,80.94
2023-11-08T04:06:12.645Z,80.99
2023-11-08T04:08:42.605Z,81.42
2023-11-08T04:11:12.968Z,81.30
2023-11-08T04:13:43.341Z,80.94
2023-11-08T04:16:16.467Z,80.82
2023-11-08T04:18:48.722Z,81.38
2023-11-08T04:21:19.108Z,81.06
2023-11-08T04:23:51.298Z,80.84
2023-11-08T04:26:22.711Z,80.21
2023-11-08T04:28:53.966Z,80.06
2023-11-08T04:31:24.481Z,80.64
2023-11-08T04:33:55.435Z,80.83
2023-11-08T04:36:28.361Z,80.91
2023-11-08T04:39:00.823Z,81.46
2023-11-08T04:41:30.804Z,80.91
2023-11-08T04:44:00.671Z,80.45
2023-11-08T04:46:30.983Z,79.98
2023-11-08T04:49:01.288Z,80.46
2023-11-08T04:51:32.243Z,79.73
2023-11-08T04:54:02.268Z,79.54
2023-11-08T04:56:33.044Z,80.10
2023-11-08T04:59:02.975Z,80.34
2023-11-08T05:01:33.369Z,79.99
2023-11-08T05:04:03.733Z,80.21
2023-11-08T05:06:33.735Z,80.08
2023-11-08T05:09:05.911Z,79.85
2023-11-08T05:11:36.181Z,79.49
2023-11-08T05:14:06.817Z,79.28
2023-11-08T05:16:37.468Z,79.79
2023-11-08T05:19:09.009Z,79.49
2023-11-08T05:21:39.694Z,79.22
2023-11-08T05:24:10.043Z,79.30
2023-11-08T05:26:39.945Z,79.08
2023-11-08T05:29:10.004Z,78.91
2023-11-08T05:31:40.416Z,78.44
2023-11-08T05:34:10.420Z,78.44
2023-11-08T05:36:40.429Z,78.87
2023-11-08T05:39:10.819Z,78.99
2023-11-08T05:41:40.565Z,78.38
2023-11-08T05:44:10.524Z,78.02
2023-11-08T05:46:40.558Z,77.61
2023-11-08T05:49:11.119Z,77.56
2023-11-08T05:51:41.850Z,77.98
2023-11-08T05:54:11.873Z,77.17
2023-11-08T05:56:43.854Z,76.11
2023-11-08T05:59:13.758Z,75.86
2023-11-08T06:01:46.560Z,76.90
2023-11-08T06:04:18.184Z,78.14
2023-11-08T06:06:50.505Z,79.14
2023-11-08T06:09:20.980Z,79.43
2023-11-08T06:11:52.154Z,80.51
2023-11-08T06:14:22.797Z,81.32
2023-11-08T06:16:54.116Z,81.93
2023-11-08T06:19:24.523Z,81.78
2023-11-08T06:21:55.289Z,82.21
2023-11-08T06:24:25.542Z,81.45
2023-11-08T06:26:55.564Z,81.34
2023-11-08T06:29:25.689Z,80.67
2023-11-08T06:31:55.718Z,79.89
2023-11-08T06:34:26.742Z,80.41
2023-11-08T06:36:56.658Z,80.65
2023-11-08T06:39:26.812Z,80.84
2023-11-08T06:41:57.901Z,80.71
2023-11-08T06:44:27.898Z,81.31
2023-11-08T06:46:58.740Z,81.05
2023-11-08T06:49:28.767Z,80.87
2023-11-08T06:51:59.416Z,81.10
2023-11-08T06:54:29.709Z,81.25
2023-11-08T06:57:00.889Z,80.59
2023-11-08T06:59:30.791Z,80.88
2023-11-08T07:02:00.408Z,80.34
2023-11-08T07:04:30.655Z,80.67
2023-11-08T07:07:03.832Z,81.39
2023-11-08T07:09:34.834Z,80.83
2023-11-08T07:12:05.779Z,80.74
2023-11-08T07:14:35.694Z,80.54
2023-11-08T07:17:07.480Z,80.66
2023-11-08T07:19:37.443Z,79.88
2023-11-08T07:22:07.547Z,80.26
2023-11-08T07:24:38.615Z,79.59
2023-11-08T07:27:10.697Z,80.06
2023-11-08T07:29:40.661Z,79.98
2023-11-08T07:32:14.874Z,77.47
2023-11-08T07:34:45.751Z,75.66
2023-11-08T07:37:15.900Z,75.24
2023-11-08T07:39:45.817Z,76.56
2023-11-08T07:42:15.810Z,76.45
2023-11-08T07:44:45.742Z,76.06
2023-11-08T07:47:16.262Z,76.80
2023-11-08T07:49:46.361Z,77.96
2023-11-08T07:52:16.185Z,78.55
2023-11-08T07:54:48.540Z,78.83
2023-11-08T07:57:19.962Z,78.62
2023-11-08T07:59:51.300Z,78.46
2023-11-08T08:02:22.400Z,78.26
2023-11-08T08:04:52.515Z,78.49
2023-11-08T08:07:22.500Z,77.70
2023-11-08T08:09:53.557Z,77.38
2023-11-08T08:12:28.744Z,78.22
2023-11-08T08:15:03.543Z,78.32
2023-11-08T08:17:36.977Z,78.65
2023-11-08T08:20:14.561Z,78.11
2023-11-08T08:22:46.779Z,77.78
2023-11-08T08:25:18.732Z,77.58
2023-11-08T08:27:49.611Z,77.45
2023-11-08T08:30:20.589Z,77.49
2023-11-08T08:32:51.927Z,76.90
2023-11-08T08:35:22.722Z,77.04
2023-11-08T08:37:52.774Z,76.32
2023-11-08T08:40:22.680Z,76.38
2023-11-08T08:42:52.616Z,76.03
2023-11-08T08:45:22.430Z,75.81
2023-11-08T08:47:54.780Z,75.29
2023-11-08T08:50:26.735Z,75.19
2023-11-08T08:52:56.701Z,75.28
2023-11-08T08:55:27.030Z,75.70
2023-11-08T08:57:59.637Z,75.78
2023-11-08T09:00:30.856Z,75.82
2023-11-08T09:03:01.437Z,75.93
2023-11-08T09:05:32.138Z,76.36
2023-11-08T09:08:05.428Z,76.05
2023-11-08T09:10:37.204Z,76.30
2023-11-08T09:13:07.545Z,76.71
2023-11-08T09:15:38.705Z,76.79
2023-11-08T09:18:12.196Z,77.12
2023-11-08T09:20:42.127Z,76.80
2023-11-08T09:23:12.495Z,77.02
2023-11-08T09:25:42.442Z,76.39
2023-11-08T09:28:12.543Z,76.19
2023-11-08T09:30:42.529Z,76.73
2023-11-08T09:33:12.546Z,76.78
2023-11-08T09:35:44.474Z,76.79
2023-11-08T09:38:14.567Z,76.77
2023-11-08T09:40:47.954Z,76.80
2023-11-08T09:43:22.777Z,76.50
2023-11-08T09:45:54.828Z,76.47
2023-11-08T09:48:24.834Z,76.64
2023-11-08T09:50:55.052Z,77.10
2023-11-08T09:53:25.197Z,76.50
2023-11-08T09:56:01.733Z,77.06
2023-11-08T09:58:33.060Z,76.65
2023-11-08T10:01:03.911Z,76.65
2023-11-08T10:03:40.365Z,76.36
2023-11-08T10:06:11.428Z,76.51
2023-11-08T10:08:41.959Z,76.82
2023-11-08T10:11:19.924Z,76.58
2023-11-08T10:13:55.291Z,76.86
2023-11-08T10:16:29.460Z,76.76
2023-11-08T10:19:36.670Z,76.80
2023-11-08T10:21:53.527Z,76.99
2023-11-08T10:24:25.688Z,76.83
2023-11-08T10:26:56.568Z,76.81
2023-11-08T10:29:28.048Z,77.41
2023-11-08T10:31:58.127Z,77.15
2023-11-08T10:34:29.301Z,76.81
2023-11-08T10:37:02.523Z,76.79
2023-11-08T10:39:33.440Z,77.52
2023-11-08T10:42:04.519Z,77.42
2023-11-08T10:44:35.337Z,77.64
2023-11-08T10:47:05.639Z,77.43
2023-11-08T10:49:36.621Z,77.12
2023-11-08T10:52:11.655Z,77.83
2023-11-08T10:54:42.256Z,77.46
2023-11-08T10:57:15.178Z,77.42
2023-11-08T10:59:52.284Z,77.50
2023-11-08T11:02:39.788Z,77.43
2023-11-08T11:05:14.552Z,77.33
2023-11-08T11:07:45.572Z,77.06
2023-11-08T11:10:17.258Z,77.45
2023-11-08T11:13:13.856Z,77.58
2023-11-08T11:15:51.555Z,77.24
2023-11-08T11:18:24.707Z,77.15
2023-11-08T11:20:58.706Z,76.93
2023-11-08T11:23:43.655Z,76.54
2023-11-08T11:26:13.820Z,76.47
2023-11-08T11:28:57.752Z,76.66
2023-11-08T11:31:43.143Z,77.64
2023-11-08T11:34:28.926Z,78.04
2023-11-08T11:37:08.470Z,77.58
2023-11-08T11:39:51.044Z,76.92
2023-11-08T11:42:26.170Z,76.24
2023-11-08T11:44:58.997Z,76.61
2023-11-08T11:47:32.284Z,76.58
2023-11-08T11:50:06.040Z,76.19
2023-11-08T11:52:37.724Z,76.23
2023-11-08T11:55:10.851Z,75.99
2023-11-08T11:57:41.630Z,76.94
2023-11-08T12:00:16.014Z,77.54
2023-11-08T12:02:51.743Z,77.46
2023-11-08T12:05:25.628Z,77.43
2023-11-08T12:07:56.743Z,77.42
2023-11-08T12:10:28.681Z,76.93
2023-11-08T12:13:01.629Z,77.46
2023-11-08T12:15:34.229Z,77.34
2023-11-08T12:18:07.495Z,77.66
2023-11-08T12:20:44.417Z,77.48
2023-11-08T12:23:14.614Z,77.79
2023-11-08T12:25:45.197Z,77.52
2023-11-08T12:28:15.299Z,78.57
2023-11-08T12:30:47.997Z,79.20
2023-11-08T12:33:18.051Z,79.47
2023-11-08T12:35:48.099Z,78.55
2023-11-08T12:38:19.667Z,78.26
2023-11-08T12:41:07.051Z,79.12
2023-11-08T12:43:59.070Z,78.24
2023-11-08T12:46:40.096Z,77.48
2023-11-08T12:49:20.591Z,77.73
2023-11-08T12:51:50.706Z,77.34
2023-11-08T12:54:21.386Z,77.46
2023-11-08T12:56:54.782Z,77.47
2023-11-08T12:59:25.868Z,77.59
2023-11-08T13:02:07.984Z,77.56
2023-11-08T13:04:42.233Z,77.50
2023-11-08T13:07:15.086Z,77.78
2023-11-08T13:09:46.030Z,77.56
2023-11-08T13:12:16.249Z,77.46
2023-11-08T13:14:50.063Z,77.37
2023-11-08T13:17:23.367Z,77.00
2023-11-08T13:19:54.650Z,76.91
2023-11-08T13:22:29.783Z,77.18
2023-11-08T13:25:03.135Z,77.25
2023-11-08T13:27:33.967Z,77.61
2023-11-08T13:30:05.978Z,77.55
2023-11-08T13:32:36.865Z,77.13
2023-11-08T13:35:14.004Z,77.43
2023-11-08T13:37:44.833Z,77.33
2023-11-08T13:40:18.146Z,77.38
2023-11-08T13:42:48.090Z,77.97
2023-11-08T13:45:19.294Z,78.17
2023-11-08T13:47:49.831Z,78.48
2023-11-08T13:50:21.125Z,78.98
2023-11-08T13:52:54.204Z,78.65
2023-11-08T13:55:26.935Z,78.98
2023-11-08T13:57:59.964Z,78.79
2023-11-08T14:00:31.142Z,79.13
2023-11-08T14:03:01.381Z,78.82
2023-11-08T14:05:34.040Z,78.82
2023-11-08T14:08:04.601Z,78.98
2023-11-08T14:10:35.273Z,78.99
2023-11-08T14:13:06.146Z,78.86
2023-11-08T14:15:36.263Z,78.63
2023-11-08T14:18:12.261Z,78.35
2023-11-08T14:20:45.067Z,78.15
2023-11-08T14:23:17.374Z,78.18
2023-11-08T14:25:50.730Z,77.99
2023-11-08T14:28:20.989Z,78.23
2023-11-08T14:30:52.353Z,77.98
2023-11-08T14:33:22.689Z,78.51
2023-11-08T14:35:53.377Z,78.12
2023-11-08T14:38:23.811Z,77.68
2023-11-08T14:40:54.283Z,77.74
2023-11-08T14:43:28.307Z,77.79
2023-11-08T14:45:58.868Z,77.88
2023-11-08T14:48:29.179Z,77.95
2023-11-08T14:50:59.140Z,77.71
2023-11-08T14:53:29.493Z,77.75
2023-11-08T14:55:59.520Z,77.92
2023-11-08T14:58:29.992Z,77.74
2023-11-08T15:01:00.751Z,78.04
2023-11-08T15:03:31.278Z,77.96
2023-11-08T15:06:05.042Z,77.92
2023-11-08T15:09:50.732Z,78.36
2023-11-08T15:11:28.779Z,78.39
2023-11-08T15:14:03.345Z,78.83
2023-11-08T15:16:36.236Z,78.43
2023-11-08T15:19:15.719Z,78.44
2023-11-08T15:21:49.642Z,78.44
2023-11-08T15:24:19.615Z,78.34
2023-11-08T15:26:51.832Z,78.33
2023-11-08T15:29:23.184Z,78.74
2023-11-08T15:31:53.295Z,78.64
2023-11-08T15:34:26.332Z,78.76
2023-11-08T15:36:59.385Z,78.85
2023-11-08T15:39:29.520Z,78.94
2023-11-08T15:41:59.497Z,79.00
2023-11-08T15:44:29.389Z,79.27
2023-11-08T15:47:04.312Z,78.96
2023-11-08T15:49:35.143Z,78.82
2023-11-08T15:52:05.278Z,78.92
2023-11-08T15:54:38.053Z,79.16
2023-11-08T15:57:08.001Z,78.83
2023-11-08T15:59:38.205Z,78.94
2023-11-08T16:02:08.590Z,79.02
2023-11-08T16:04:39.564Z,79.01
2023-11-08T16:07:12.643Z,78.76
2023-11-08T16:09:47.643Z,78.65
2023-11-08T16:12:18.409Z,78.92
2023-11-08T16:14:48.990Z,78.94
2023-11-08T16:17:19.178Z,78.90
2023-11-08T16:19:52.201Z,79.17
2023-11-08T16:22:22.674Z,79.12
2023-11-08T16:25:08.690Z,79.27
2023-11-08T16:27:47.427Z,79.63
2023-11-08T16:30:17.986Z,79.69
2023-11-08T16:33:12.139Z,79.45
2023-11-08T16:35:42.215Z,79.06
2023-11-08T16:38:12.510Z,79.09
2023-11-08T16:40:42.670Z,79.59
2023-11-08T16:43:15.516Z,79.61
2023-11-08T16:45:45.387Z,79.73
2023-11-08T16:48:15.500Z,79.69
2023-11-08T16:50:51.404Z,79.81
2023-11-08T16:53:21.457Z,80.11
2023-11-08T16:55:51.364Z,80.24
2023-11-08T16:58:21.238Z,80.25
2023-11-08T17:00:51.198Z,80.25
2023-11-08T17:03:21.837Z,80.78
2023-11-08T17:05:52.740Z,80.29
2023-11-08T17:08:22.993Z,80.35
2023-11-08T17:10:53.299Z,81.21
2023-11-08T17:13:24.515Z,82.17
2023-11-08T17:16:03.329Z,82.55
2023-11-08T17:18:34.022Z,82.38
2023-11-08T17:21:09.046Z,82.02
2023-11-08T17:23:42.011Z,82.29
2023-11-08T17:26:17.469Z,82.23
2023-11-08T17:28:54.042Z,82.15
2023-11-08T17:31:31.520Z,82.69
2023-11-08T17:34:01.601Z,82.50
2023-11-08T17:36:32.026Z,83.03
2023-11-08T17:39:07.112Z,83.23
2023-11-08T17:41:37.633Z,83.17
2023-11-08T17:44:07.912Z,82.20
2023-11-08T17:46:41.304Z,82.05
2023-11-08T17:49:11.256Z,82.89
2023-11-08T17:51:41.586Z,82.84
2023-11-08T17:54:26.805Z,83.58
2023-11-08T17:56:57.262Z,83.61
2023-11-08T17:59:27.241Z,83.30
2023-11-08T18:01:59.678Z,83.03
2023-11-08T18:04:32.284Z,82.26
2023-11-08T18:07:02.501Z,82.50
2023-11-08T18:09:35.440Z,82.88
2023-11-08T18:12:09.069Z,82.55
2023-11-08T18:14:41.706Z,82.93
2023-11-08T18:17:14.819Z,82.84
2023-11-08T18:19:45.395Z,83.05
2023-11-08T18:22:15.888Z,83.46
2023-11-08T18:24:46.912Z,83.54
2023-11-08T18:27:16.905Z,83.68
2023-11-08T18:29:49.871Z,84.09
2023-11-08T18:32:20.016Z,84.02
2023-11-08T18:34:50.885Z,83.65
2023-11-08T18:37:21.232Z,84.22
2023-11-08T18:39:51.256Z,84.01
2023-11-08T18:42:21.778Z,84.19
2023-11-08T18:44:51.702Z,83.99
2023-11-08T18:47:21.364Z,84.06
2023-11-08T18:49:53.040Z,84.29
2023-11-08T18:52:22.922Z,84.23
2023-11-08T18:54:53.521Z,84.56
2023-11-08T18:57:24.025Z,84.09
2023-11-08T18:59:56.664Z,84.24
2023-11-08T19:02:26.642Z,83.79
2023-11-08T19:04:56.447Z,83.88
2023-11-08T19:07:26.486Z,84.21
2023-11-08T19:09:57.470Z,84.04
2023-11-08T19:12:28.203Z,83.59
2023-11-08T19:15:00.924Z,83.73
2023-11-08T19:17:31.604Z,83.70
2023-11-08T19:20:02.067Z,83.41
2023-11-08T19:22:32.546Z,83.64
2023-11-08T19:25:03.292Z,83.78
2023-11-08T19:27:35.179Z,83.71
2023-11-08T19:30:06.059Z,83.37
2023-11-08T19:32:37.088Z,83.52
2023-11-08T19:35:08.011Z,83.89
2023-11-08T19:37:39.217Z,83.92
2023-11-08T19:40:12.634Z,84.34
2023-11-08T19:42:42.941Z,84.21
2023-11-08T19:45:13.224Z,84.02
2023-11-08T19:47:43.274Z,83.78
2023-11-08T19:50:15.999Z,84.18
2023-11-08T19:52:48.338Z,83.97
2023-11-08T19:55:18.399Z,83.71
2023-11-08T19:57:48.734Z,84.00
2023-11-08T20:00:18.586Z,84.40
2023-11-08T20:02:48.993Z,84.34
2023-11-08T20:05:18.985Z,84.19
2023-11-08T20:07:51.243Z,84.47
2023-11-08T20:10:21.327Z,84.47
2023-11-08T20:12:51.424Z,84.60
2023-11-08T20:15:21.778Z,84.43
2023-11-08T20:17:51.895Z,84.39
2023-11-08T20:20:22.147Z,84.63
2023-11-08T20:22:54.020Z,84.56
2023-11-08T20:25:24.863Z,84.93
2023-11-08T20:27:55.566Z,84.87
2023-11-08T20:30:26.247Z,84.85
2023-11-08T20:32:56.253Z,84.70
2023-11-08T20:35:26.390Z,84.58
2023-11-08T20:37:58.962Z,84.72
2023-11-08T20:40:28.883Z,84.82
2023-11-08T20:43:01.434Z,84.84
2023-11-08T20:45:31.638Z,84.69
2023-11-08T20:48:01.422Z,85.16
2023-11-08T20:50:31.878Z,85.44
2023-11-08T20:53:02.122Z,85.52
2023-11-08T20:55:32.160Z,85.57
2023-11-08T20:58:03.627Z,85.54
2023-11-08T21:00:33.518Z,85.33
2023-11-08T21:03:05.040Z,85.79
2023-11-08T21:05:34.926Z,85.62
2023-11-08T21:08:04.826Z,85.82
2023-11-08T21:10:34.544Z,85.12
2023-11-08T21:13:04.453Z,85.52
2023-11-08T21:15:36.180Z,85.44
2023-11-08T21:18:06.677Z,85.31
2023-11-08T21:20:36.307Z,85.45
2023-11-08T21:23:06.523Z,85.61
2023-11-08T21:25:39.407Z,85.59
2023-11-08T21:28:09.373Z,85.41
2023-11-08T21:30:39.898Z,85.19
2023-11-08T21:33:10.221Z,85.02
2023-11-08T21:35:40.839Z,85.44
2023-11-08T21:38:10.758Z,85.23
2023-11-08T21:40:40.621Z,85.40
2023-11-08T21:43:10.841Z,85.18
2023-11-08T21:45:42.441Z,84.83
2023-11-08T21:48:12.358Z,85.19
2023-11-08T21:50:42.141Z,84.91
2023-11-08T21:53:12.665Z,85.17
2023-11-08T21:55:45.815Z,85.51
2023-11-08T21:58:16.360Z,85.08
2023-11-08T22:00:47.563Z,85.34
2023-11-08T22:03:18.134Z,85.85
2023-11-08T22:05:50.912Z,85.59
2023-11-08T22:08:21.180Z,85.65
2023-11-08T22:10:51.124Z,85.97
2023-11-08T22:13:21.217Z,86.61
2023-11-08T22:15:51.777Z,86.40
2023-11-08T22:18:21.595Z,86.57
2023-11-08T22:20:51.227Z,86.88
2023-11-08T22:23:24.919Z,86.56
2023-11-08T22:25:54.856Z,86.90
2023-11-08T22:28:24.921Z,86.54
2023-11-08T22:30:56.665Z,86.43
2023-11-08T22:33:26.689Z,86.64
2023-11-08T22:35:57.466Z,86.67
2023-11-08T22:38:27.847Z,86.56
2023-11-08T22:40:58.282Z,86.56
2023-11-08T22:43:28.268Z,86.71
2023-11-08T22:45:58.278Z,86.96
2023-11-08T22:48:30.255Z,86.67
2023-11-08T22:51:00.868Z,86.42
2023-11-08T22:53:32.558Z,86.45
2023-11-08T22:56:03.688Z,86.57
2023-11-08T22:58:35.112Z,86.21
2023-11-08T23:01:05.357Z,85.76
2023-11-08T23:03:35.368Z,86.33
2023-11-08T23:06:08.448Z,86.00
2023-11-08T23:08:38.825Z,85.92
2023-11-08T23:11:09.818Z,85.63
2023-11-08T23:13:40.128Z,86.00
2023-11-08T23:16:10.336Z,86.38
2023-11-08T23:18:41.327Z,86.07
2023-11-08T23:21:11.426Z,85.82
2023-11-08T23:23:42.586Z,85.47
2023-11-08T23:26:12.432Z,85.61
2023-11-08T23:28:42.578Z,85.84
2023-11-08T23:31:13.046Z,86.00
2023-11-08T23:33:43.121Z,84.79
2023-11-08T23:36:16.474Z,85.43
2023-11-08T23:38:46.812Z,85.83
2023-11-08T23:41:16.807Z,85.32
2023-11-08T23:43:49.306Z,86.53
2023-11-08T23:46:22.638Z,85.25
2023-11-08T23:48:53.163Z,84.69
2023-11-08T23:51:23.428Z,84.55
2023-11-08T23:53:53.448Z,84.55
2023-11-08T23:56:25.023Z,84.44
2023-11-08T23:58:59.150Z,83.84
